Time;durP1;ratioP1;P1;durP2;ratioP2;P2;SDS_P1;SDS_P2;PMS_P1;PMS_P2;Temp;Humidity;BMP_temperature;BMP_pressure;BME280_temperature;BME280_humidity;BME280_pressure;Samples;Min_cycle;Max_cycle;Signal;HPM_P1;HPM_P2
2024/04/10 00:00:31;;;;;;;1.43;0.67;;;;;;;11.62;68.17;96189.53;6179974;23;20197;-88
2024/04/10 00:03:45;;;;;;;;;;;;;;;;;;;;;
2024/04/10 00:06:37;;;;;;;0.50;0.50;;;;;;;11.43;68.42;96173.50;6179862;23;20166;-87
2024/04/10 00:12:51;;;;;;;0.97;0.70;;;;;;;11.53;68.47;96181.03;6177630;23;20186;-88
2024/04/10 00:15:22;;;;;;;0.50;0.50;;;;;;;11.52;68.52;96188.94;6181231;23;20194;-88
2024/04/10 00:18:04;;;;;;;2.00;0.57;;;;;;;11.42;68.01;96177.03;6181154;23;20224;-88
2024/04/10 00:20:40;;;;;;;1.03;0.53;;;;;;;11.41;68.69;96183.16;6181872;23;20582;-88
2024/04/10 00:26:58;;;;;;;0.93;0.60;;;;;;;11.37;68.77;96169.00;6067740;23;20291;-88
2024/04/10 00:29:38;;;;;;;0.73;0.60;;;;;;;11.42;68.39;96174.47;6090214;23;20180;-87
2024/04/10 00:34:56;;;;;;;0.50;0.50;;;;;;;11.47;69.32;96212.66;6178579;23;20202;-87
2024/04/10 00:37:54;;;;;;;0.57;0.57;;;;;;;11.41;69.37;96198.63;6181822;23;20162;-88
2024/04/10 00:44:08;;;;;;;1.33;0.60;;;;;;;11.36;69.10;96203.47;6172870;23;20205;-88
2024/04/10 00:46:52;;;;;;;1.80;0.60;;;;;;;11.24;69.69;96222.84;6181549;23;20182;-88
2024/04/10 00:49:52;;;;;;;0.60;0.60;;;;;;;11.25;69.70;96226.25;6180090;23;20277;-88
2024/04/10 00:52:32;;;;;;;1.00;0.90;;;;;;;11.25;69.91;96229.63;6181421;23;20174;-88
2024/04/10 00:55:22;;;;;;;0.90;0.80;;;;;;;11.20;69.81;96229.31;6181913;23;20376;-88
2024/04/10 01:01:22;;;;;;;1.40;1.00;;;;;;;10.92;70.88;96261.56;6160416;23;20201;-88
2024/04/10 01:04:08;;;;;;;1.17;0.60;;;;;;;10.99;70.82;96271.03;6173335;23;20177;-89
2024/04/10 01:09:50;;;;;;;0.83;0.70;;;;;;;11.11;70.16;96258.66;6115668;23;20189;-88
2024/04/10 01:12:16;;;;;;;1.10;0.70;;;;;;;11.02;71.02;96264.75;6181454;23;20189;-87
2024/04/10 01:15:00;;;;;;;0.80;0.70;;;;;;;10.84;71.10;96280.38;6182037;23;20594;-88
2024/04/10 01:17:34;;;;;;;0.53;0.50;;;;;;;10.81;71.65;96290.19;6181133;23;20520;-90
2024/04/10 01:20:20;;;;;;;0.70;0.70;;;;;;;10.65;72.14;96298.72;6181848;23;20222;-88
2024/04/10 01:22:52;;;;;;;1.07;0.90;;;;;;;10.65;72.42;96288.44;6180717;23;20589;-88
2024/04/10 01:26:07;;;;;;;1.47;0.90;;;;;;;10.67;72.57;96284.72;6181995;23;20154;-88
2024/04/10 01:28:54;;;;;;;1.67;0.70;;;;;;;10.61;72.25;96277.63;6181910;23;20665;-87
2024/04/10 01:31:30;;;;;;;1.17;0.80;;;;;;;10.73;72.39;96289.25;6157443;23;20198;-88
2024/04/10 01:34:04;;;;;;;2.20;0.80;;;;;;;10.82;71.96;96281.50;6181528;23;20249;-87
2024/04/10 01:39:27;;;;;;;1.10;0.80;;;;;;;10.68;71.77;96270.88;6178566;23;20185;-87
2024/04/10 01:41:59;;;;;;;0.90;0.67;;;;;;;10.69;72.31;96282.00;6181615;23;20590;-88
2024/04/10 01:44:37;;;;;;;1.43;0.87;;;;;;;10.59;72.10;96278.75;6181537;23;20169;-88
2024/04/10 01:47:34;;;;;;;0.87;0.80;;;;;;;10.58;71.70;96288.25;6181625;23;20162;-87
2024/04/10 01:50:46;;;;;;;;;;;;;;;;;;;;;
2024/04/10 01:53:29;;;;;;;1.90;1.00;;;;;;;10.83;71.47;96286.50;6181840;23;20177;-88
2024/04/10 01:59:18;;;;;;;1.43;0.90;;;;;;;10.97;70.83;96270.41;6178442;23;20178;-88
2024/04/10 02:01:59;;;;;;;1.47;0.87;;;;;;;10.96;70.71;96262.84;6181168;23;20198;-88
2024/04/10 02:04:39;;;;;;;1.73;0.90;;;;;;;10.89;71.39;96267.84;6181973;23;20201;-88
2024/04/10 02:07:14;;;;;;;1.40;0.83;;;;;;;10.93;70.48;96253.69;6181213;23;20155;-87
2024/04/10 02:10:06;;;;;;;0.83;0.70;;;;;;;10.95;70.65;96243.22;6181622;23;20173;-87
2024/04/10 02:12:48;;;;;;;1.47;0.80;;;;;;;11.00;70.48;96236.56;6180816;23;20157;-87
2024/04/10 02:15:45;;;;;;;0.83;0.60;;;;;;;11.04;70.49;96237.88;6180825;23;20179;-87
2024/04/10 02:18:21;;;;;;;0.70;0.60;;;;;;;11.07;69.97;96218.69;6180701;23;20291;-88
2024/04/10 02:21:32;;;;;;;0.93;0.80;;;;;;;11.01;69.30;96196.97;6180708;23;20249;-87
2024/04/10 02:24:16;;;;;;;1.53;0.70;;;;;;;11.04;69.08;96211.28;6181066;23;20486;-88
2024/04/10 02:27:07;;;;;;;2.60;0.73;;;;;;;10.79;69.53;96220.81;6180063;23;20229;-87
2024/04/10 02:32:51;;;;;;;1.57;0.73;;;;;;;10.76;70.15;96244.34;6160625;23;20184;-87
2024/04/10 02:36:02;;;;;;;;;;;;;;;;;;;;;
2024/04/10 02:41:33;;;;;;;1.47;0.80;;;;;;;10.90;69.54;96237.72;6177902;23;20194;-87
2024/04/10 02:44:05;;;;;;;0.87;0.60;;;;;;;10.94;69.76;96234.69;6178533;23;20177;-87
2024/04/10 02:46:52;;;;;;;1.60;1.00;;;;;;;10.99;70.04;96241.91;6181011;23;20158;-87
2024/04/10 02:49:27;;;;;;;2.63;1.00;;;;;;;10.97;69.73;96236.91;6180728;23;20174;-87
2024/04/10 02:52:11;;;;;;;1.33;0.77;;;;;;;10.99;69.29;96247.84;6181059;23;20197;-88
2024/04/10 02:54:58;;;;;;;1.30;0.80;;;;;;;10.96;69.81;96258.50;6181610;23;20174;-87
2024/04/10 02:57:43;;;;;;;2.10;0.83;;;;;;;10.93;69.35;96240.78;6180362;23;20198;-88
2024/04/10 03:00:23;;;;;;;1.13;0.70;;;;;;;10.89;68.71;96223.25;6179786;23;20212;-87
2024/04/10 03:03:12;;;;;;;0.67;0.60;;;;;;;10.88;68.83;96216.47;6180374;23;20162;-87
2024/04/10 03:06:16;;;;;;;1.07;0.80;;;;;;;10.78;69.12;96233.84;6180354;23;20171;-87
2024/04/10 03:09:11;;;;;;;2.23;0.90;;;;;;;10.77;69.45;96237.44;6180762;23;20166;-87
2024/04/10 03:13:49;;;;;;;2.17;0.80;;;;;;;10.80;69.09;96226.78;6180218;23;20214;-87
2024/04/10 03:15:12;;;;;;;1.10;0.63;;;;;;;10.81;68.97;96226.63;6096742;23;20182;-88
2024/04/10 03:18:12;;;;;;;1.63;0.80;;;;;;;10.85;68.97;96224.53;6179798;23;20193;-87
2024/04/10 03:27:25;;;;;;;1.20;0.67;;;;;;;10.91;68.43;96231.63;6085653;23;20234;-88
2024/04/10 03:30:14;;;;;;;1.27;0.70;;;;;;;10.80;68.60;96230.16;6134669;23;20173;-88
2024/04/10 03:33:10;;;;;;;0.93;0.60;;;;;;;10.81;68.61;96231.75;6166148;23;20226;-88
2024/04/10 03:35:47;;;;;;;0.60;0.60;;;;;;;10.80;68.58;96245.59;6180221;23;20204;-87
2024/04/10 03:38:51;;;;;;;1.30;0.80;;;;;;;10.83;69.00;96255.59;6179728;23;20202;-88
2024/04/10 03:41:24;;;;;;;0.77;0.60;;;;;;;10.88;69.20;96255.13;6119226;23;20197;-87
2024/04/10 03:44:32;;;;;;;;;;;;;;;;;;;;;
2024/04/10 03:47:30;;;;;;;1.87;0.80;;;;;;;10.84;68.00;96231.44;6179546;23;20917;-88
2024/04/10 03:53:56;;;;;;;;;;;;;;;;;;;;;
2024/04/10 03:56:43;;;;;;;1.07;0.70;;;;;;;10.61;68.76;96263.94;6179244;23;20190;-88
2024/04/10 04:05:13;;;;;;;1.77;0.87;;;;;;;10.58;68.54;96267.66;6080011;23;20181;-88
2024/04/10 04:07:47;;;;;;;1.17;0.80;;;;;;;10.60;68.71;96277.78;6179619;23;20174;-88
2024/04/10 04:10:18;;;;;;;1.77;0.80;;;;;;;10.61;69.52;96294.84;6179796;23;20213;-88
2024/04/10 04:12:50;;;;;;;2.03;0.90;;;;;;;10.67;69.71;96318.22;6180365;23;20155;-89
2024/04/10 04:15:18;;;;;;;1.33;0.70;;;;;;;10.72;69.40;96315.97;6179583;23;20174;-88
2024/04/10 04:17:55;;;;;;;0.83;0.73;;;;;;;10.76;69.06;96305.34;6179545;23;20734;-88
2024/04/10 04:20:40;;;;;;;;;;;;;;;;;;;;;
2024/04/10 04:23:06;;;;;;;1.37;0.70;;;;;;;10.71;68.52;96296.34;6179970;23;20494;-89
2024/04/10 04:29:05;;;;;;;1.63;0.73;;;;;;;10.70;68.85;96299.06;6175436;23;20554;-89
2024/04/10 04:32:18;;;;;;;2.23;0.83;;;;;;;10.70;68.60;96307.59;6157294;23;20193;-90
2024/04/10 04:34:44;;;;;;;2.10;0.87;;;;;;;10.68;69.01;96319.81;6180377;23;20272;-89
2024/04/10 04:37:33;;;;;;;2.23;0.90;;;;;;;10.72;68.82;96331.44;6179942;23;20202;-89
2024/04/10 04:40:17;;;;;;;;;;;;;;;;;;;;;
2024/04/10 04:42:48;;;;;;;1.23;0.80;;;;;;;10.88;68.95;96319.53;6178519;23;20166;-87
2024/04/10 04:45:26;;;;;;;1.73;1.00;;;;;;;10.86;68.79;96319.69;6180143;23;20782;-89
2024/04/10 04:48:11;;;;;;;1.40;0.77;;;;;;;10.88;68.24;96306.66;6179425;23;20602;-89
2024/04/10 04:50:57;;;;;;;1.63;0.90;;;;;;;10.91;68.50;96316.63;6163817;23;20278;-89
2024/04/10 04:53:26;;;;;;;4.77;4.27;;;;;;;10.98;68.23;96304.69;6179908;23;20185;-89
2024/04/10 04:56:13;;;;;;;3.00;2.13;;;;;;;10.86;67.59;96286.19;6179657;23;20228;-90
2024/04/10 04:58:44;;;;;;;1.50;0.77;;;;;;;10.88;67.17;96281.69;6180851;23;20174;-91
2024/04/10 05:06:44;;;;;;;2.80;0.80;;;;;;;10.83;67.41;96289.09;6152743;23;20157;-89
2024/04/10 05:12:02;;;;;;;0.80;0.60;;;;;;;10.81;67.56;96301.31;6122118;23;20180;-89
2024/04/10 05:15:43;;;;;;;2.73;1.47;;;;;;;10.82;68.08;96320.16;6123274;23;20244;-91
2024/04/10 05:21:38;;;;;;;2.70;1.10;;;;;;;10.85;68.41;96354.13;6031742;23;20205;-89
2024/04/10 05:24:08;;;;;;;2.20;0.90;;;;;;;10.86;68.18;96344.63;6031587;23;20553;-88
2024/04/10 05:32:35;;;;;;;9.63;6.83;;;;;;;10.96;68.05;96371.06;6092249;23;20192;-87
2024/04/10 05:35:13;;;;;;;;;;;;;;;;;;;;;
2024/04/10 05:37:45;;;;;;;1.50;1.03;;;;;;;11.00;68.00;96359.47;6093161;23;20192;-87
2024/04/10 05:40:33;;;;;;;1.93;1.00;;;;;;;11.01;67.65;96359.31;6091758;23;20219;-87
2024/04/10 05:43:03;;;;;;;1.43;0.90;;;;;;;11.01;67.73;96366.22;6063108;23;20172;-87
2024/04/10 05:48:27;;;;;;;2.53;1.03;;;;;;;11.02;67.59;96373.00;6059984;23;20172;-88
2024/04/10 05:53:38;;;;;;;1.53;1.00;;;;;;;11.00;67.46;96375.72;6116147;23;20199;-88
2024/04/10 05:59:09;;;;;;;1.20;0.97;;;;;;;11.01;67.93;96389.41;6122465;23;20198;-86
2024/04/10 06:01:38;;;;;;;1.97;1.20;;;;;;;10.96;68.22;96402.81;6121922;23;20205;-87
2024/04/10 06:04:07;;;;;;;12.50;10.30;;;;;;;11.04;68.87;96420.84;6122893;23;20321;-85
2024/04/10 06:06:46;;;;;;;;;;;;;;;;;;;;;
2024/04/10 06:09:15;;;;;;;3.27;1.40;;;;;;;11.13;67.26;96390.75;6123559;23;20183;-88
2024/04/10 06:11:43;;;;;;;1.40;0.87;;;;;;;11.12;67.34;96378.81;6123260;23;20206;-88
2024/04/10 06:17:08;;;;;;;0.83;0.80;;;;;;;11.10;67.00;96373.00;6119888;23;20250;-87
2024/04/10 06:22:48;;;;;;;1.43;0.90;;;;;;;11.08;66.83;96365.44;6033999;23;20260;-87
2024/04/10 06:25:51;;;;;;;1.87;1.00;;;;;;;11.12;67.11;96389.13;6113655;23;20171;-88
2024/04/10 06:28:17;;;;;;;2.80;0.93;;;;;;;11.11;66.81;96384.13;6114876;23;20218;-88
2024/04/10 06:30:44;;;;;;;2.13;1.07;;;;;;;11.13;66.87;96385.59;6121756;23;20579;-89
2024/04/10 06:33:18;;;;;;;2.40;0.97;;;;;;;11.14;67.38;96401.84;6122580;23;20168;-88
2024/04/10 06:35:50;;;;;;;2.03;1.00;;;;;;;11.21;66.92;96398.47;6123849;23;20243;-88
2024/04/10 06:38:39;;;;;;;1.70;1.20;;;;;;;11.31;67.32;96424.91;6123708;23;20719;-88
2024/04/10 06:41:35;;;;;;;;;;;;;;;;;;;;;
2024/04/10 06:44:07;;;;;;;1.47;1.10;;;;;;;11.22;66.09;96387.19;6119109;23;20251;-89
2024/04/10 06:46:39;;;;;;;8.37;7.13;;;;;;;11.20;65.99;96388.31;6121251;23;20167;-89
2024/04/10 06:52:02;;;;;;;2.30;1.23;;;;;;;11.07;66.15;96407.63;6120886;23;20540;-89
2024/04/10 06:54:48;;;;;;;;;;;;;;;;;;;;;
2024/04/10 07:00:12;;;;;;;2.83;1.10;;;;;;;11.14;66.27;96420.72;6106640;23;20206;-89
2024/04/10 07:06:05;;;;;;;2.40;0.90;;;;;;;11.19;66.79;96448.56;5975270;24;20258;-88
2024/04/10 07:11:37;;;;;;;4.93;1.13;;;;;;;11.18;66.57;96450.34;5945322;24;20255;-88
2024/04/10 07:14:12;;;;;;;2.37;1.00;;;;;;;11.24;66.63;96448.91;6027837;23;20184;-89
2024/04/10 07:16:39;;;;;;;1.73;1.03;;;;;;;11.28;66.18;96435.53;6052187;23;20207;-88
2024/04/10 07:19:06;;;;;;;3.07;2.43;;;;;;;11.28;66.36;96429.56;6120289;23;20277;-88
2024/04/10 07:21:36;;;;;;;11.73;10.53;;;;;;;11.32;66.80;96459.22;6120633;23;20207;-88
2024/04/10 07:24:22;;;;;;;2.63;2.43;;;;;;;11.33;66.13;96448.75;6121509;23;20171;-88
2024/04/10 07:27:19;;;;;;;1.27;1.10;;;;;;;11.35;65.63;96415.88;6121169;23;20757;-89
2024/04/10 07:36:44;;;;;;;2.13;1.40;;;;;;;11.24;65.94;96434.25;5940881;23;20548;-88
2024/04/10 07:39:41;;;;;;;1.50;1.20;;;;;;;11.25;66.49;96458.25;6030001;23;20174;-88
2024/04/10 07:43:03;;;;;;;;;;;;;;;;;;;;;
2024/04/10 07:45:54;;;;;;;;;;;;;;;;;;;;;
2024/04/10 08:02:24;;;;;;;;;;;;;;;;;;;;;
2024/04/10 08:05:21;;;;;;;2.20;1.73;;;;;;;11.58;67.14;96514.03;5974078;24;20262;-88
2024/04/10 08:08:03;;;;;;;6.47;3.63;;;;;;;11.51;66.83;96491.66;5973581;24;20207;-88
2024/04/10 08:20:27;;;;;;;4.30;1.60;;;;;;;11.56;66.51;96522.91;5989481;23;20263;-89
2024/04/10 08:23:02;;;;;;;2.27;1.60;;;;;;;11.65;66.70;96525.34;6002373;23;20189;-89
2024/04/10 08:26:25;;;;;;;1.90;1.33;;;;;;;11.55;67.71;96558.19;6002192;23;20174;-88
2024/04/10 08:29:02;;;;;;;2.30;1.33;;;;;;;11.65;66.11;96527.94;5919022;24;20188;-88
2024/04/10 08:31:38;;;;;;;5.50;1.87;;;;;;;11.65;66.37;96521.97;5961560;23;20689;-87
2024/04/10 08:34:09;;;;;;;1.87;1.23;;;;;;;11.68;66.23;96531.97;6016727;23;20223;-87
2024/04/10 08:43:00;;;;;;;3.53;1.50;;;;;;;11.94;65.30;96483.59;6146561;23;20213;-90
2024/04/10 08:45:35;;;;;;;3.23;2.00;;;;;;;12.00;65.56;96505.38;6182525;23;20181;-88
2024/04/10 08:55:06;;;;;;;4.77;1.60;;;;;;;12.42;64.00;96462.06;6098828;23;20254;-88
2024/04/10 09:01:37;;;;;;;5.23;2.10;;;;;;;12.60;62.31;96396.44;6057871;23;20653;-89
2024/04/10 09:04:41;;;;;;;4.27;1.67;;;;;;;12.70;62.96;96421.09;6030631;23;20265;-89
2024/04/10 09:07:26;;;;;;;2.53;1.67;;;;;;;12.78;61.74;96382.28;6060810;23;20173;-88
2024/04/10 09:11:04;;;;;;;4.10;1.63;;;;;;;12.85;61.38;96369.50;6060743;23;20157;-89
2024/04/10 09:17:20;;;;;;;2.60;1.53;;;;;;;13.04;59.70;96313.97;6092828;23;20182;-88
2024/04/10 09:19:51;;;;;;;3.83;1.80;;;;;;;13.15;59.94;96295.47;6147171;23;20209;-88
2024/04/10 09:23:10;;;;;;;7.10;5.77;;;;;;;13.34;60.06;96305.31;6150198;23;20830;-88
2024/04/10 09:33:25;;;;;;;;;;;;;;;;;;;;;
2024/04/10 09:36:02;;;;;;;2.87;1.70;;;;;;;13.28;57.91;96215.50;5978683;23;20535;-88
2024/04/10 09:49:22;;;;;;;;;;;;;;;;;;;;;
2024/04/10 10:03:54;;;;;;;;;;;;;;;;;;;;;
2024/04/10 10:07:10;;;;;;;3.93;1.77;;;;;;;14.05;54.95;96099.34;5946308;24;20176;-88
2024/04/10 10:13:45;;;;;;;3.95;1.80;;;;;;;14.13;56.18;96153.63;5992527;23;20249;-88
2024/04/10 10:16:48;;;;;;;3.03;1.80;;;;;;;14.03;56.20;96152.34;5971540;23;20182;-88
2024/04/10 10:19:38;;;;;;;4.47;2.75;;;;;;;14.17;54.42;96094.50;6059147;23;20176;-88
2024/04/10 10:53:16;;;;;;;;;;;;;;;;;;;;;
2024/04/10 10:56:05;;;;;;;4.85;1.80;;;;;;;15.83;53.24;95985.41;5952941;23;20449;-86
2024/04/10 10:58:37;;;;;;;2.78;1.98;;;;;;;15.93;51.47;95957.25;6031289;23;20637;-85
2024/04/10 11:01:07;;;;;;;4.05;1.80;;;;;;;16.17;51.37;95929.84;6030156;23;20245;-87
2024/04/10 11:04:14;;;;;;;3.78;1.48;;;;;;;16.29;49.69;95839.88;6144978;23;20634;-86
2024/04/10 11:06:40;;;;;;;2.95;1.55;;;;;;;16.26;48.28;95777.94;6151176;23;20220;-85
2024/04/10 11:09:18;;;;;;;3.78;1.88;;;;;;;16.43;50.59;95882.22;6150681;23;20198;-86
2024/04/10 11:12:26;;;;;;;3.83;1.48;;;;;;;16.72;46.88;95738.72;6149784;23;20281;-90
2024/04/10 11:22:06;;;;;;;;;;;;;;;;;;;;;
2024/04/10 11:25:21;;;;;;;2.45;1.30;;;;;;;16.89;45.59;95621.97;6032491;23;20177;-89
2024/04/10 11:28:28;;;;;;;2.80;1.40;;;;;;;16.88;46.45;95662.78;6031379;23;20185;-89
2024/04/10 11:45:14;;;;;;;4.95;1.70;;;;;;;15.43;47.39;95704.28;5839010;24;20218;-89
2024/04/10 12:04:11;;;;;;;2.45;1.40;;;;;;;16.67;41.99;95413.56;6005430;23;20898;-89
2024/04/10 12:20:56;;;;;;;10.27;3.38;;;;;;;15.49;46.67;95662.75;6053113;23;20193;-88
2024/04/10 12:27:45;;;;;;;2.72;1.63;;;;;;;14.98;47.39;95685.22;6088635;23;20223;-88
2024/04/10 12:31:03;;;;;;;3.35;1.60;;;;;;;15.08;47.56;95714.91;6118346;23;20277;-90
2024/04/10 12:51:13;;;;;;;1.65;1.15;;;;;;;15.23;45.14;95564.25;5982761;23;20226;-88
2024/04/10 12:54:10;;;;;;;1.27;1.08;;;;;;;15.37;45.60;95594.34;5977297;24;20246;-88
2024/04/10 13:03:31;;;;;;;12.20;10.48;;;;;;;15.59;44.25;95511.81;5974970;23;20179;-88
2024/04/10 13:06:21;;;;;;;3.38;2.30;;;;;;;15.57;44.23;95502.66;6059867;23;20232;-89
2024/04/10 13:09:08;;;;;;;2.80;1.60;;;;;;;15.55;44.78;95541.75;6151281;23;20167;-89
2024/04/10 13:11:50;;;;;;;4.15;1.50;;;;;;;15.57;44.43;95521.63;6149943;23;20190;-89
2024/04/10 13:14:58;;;;;;;2.65;1.35;;;;;;;15.66;45.51;95584.44;6151642;23;20677;-88
2024/04/10 13:18:38;;;;;;;3.90;1.55;;;;;;;15.81;45.58;95606.53;6112002;23;20566;-90
2024/04/10 13:21:50;;;;;;;;;;;;;;;;;;;;;
2024/04/10 13:25:09;;;;;;;;;;;;;;;;;;;;;
2024/04/10 13:48:24;;;;;;;2.28;1.23;;;;;;;15.57;44.44;95529.41;6102183;23;20571;-89
2024/04/10 13:51:37;;;;;;;3.17;1.50;;;;;;;15.25;43.21;95442.13;6119054;23;20206;-88
2024/04/10 14:36:31;;;;;;;6.35;1.77;;;;;;;14.76;49.98;95820.22;5898893;24;20222;-89
2024/04/10 14:43:27;;;;;;;3.10;1.92;;;;;;;14.93;47.04;95716.13;6102808;23;20227;-88
2024/04/10 14:56:20;;;;;;;;;;;;;;;;;;;;;
2024/04/10 14:59:17;;;;;;;;;;;;;;;;;;;;;
2024/04/10 15:39:02;;;;;;;3.40;2.00;;;;;;;14.09;49.67;95859.78;6113311;23;20203;-89
2024/04/10 15:41:58;;;;;;;11.45;9.05;;;;;;;13.89;48.18;95785.59;6095594;23;20199;-87
2024/04/10 15:58:46;;;;;;;5.37;2.47;;;;;;;13.84;49.32;95850.88;6046184;23;20180;-88
2024/04/10 16:09:36;;;;;;;10.80;8.53;;;;;;;13.90;50.38;95896.69;5866168;24;20187;-88
2024/04/10 16:18:14;;;;;;;7.78;3.08;;;;;;;13.79;49.45;95890.28;5944917;24;20259;-89
2024/04/10 16:47:20;;;;;;;2.70;1.75;;;;;;;13.92;48.30;95830.00;5820156;24;20749;-89
2024/04/10 16:50:42;;;;;;;;;;;;;;;;;;;;;
2024/04/10 19:27:04;;;;;;;8.53;4.00;;;;;;;12.74;57.63;96435.28;6030268;23;20233;-89
2024/04/10 22:36:31;;;;;;;;;;;;;;;;;;;;;
2024/04/10 22:39:43;;;;;;;7.00;3.40;;;;;;;10.89;65.80;96854.47;5898161;24;20279;-87
2024/04/10 22:43:28;;;;;;;;;;;;;;;;;;;;;
2024/04/10 22:47:10;;;;;;;8.97;4.10;;;;;;;10.93;65.26;96830.03;5888410;23;20815;-88
2024/04/10 23:00:43;;;;;;;9.90;6.07;;;;;;;10.79;66.34;96871.75;5975390;24;20897;-88
2024/04/10 23:03:53;;;;;;;;;;;;;;;;;;;;;
2024/04/10 23:16:24;;;;;;;7.37;3.63;;;;;;;10.71;66.29;96882.81;6021230;23;20570;-87
2024/04/10 23:23:00;;;;;;;5.47;3.70;;;;;;;10.54;67.25;96899.03;6052122;23;20188;-89
2024/04/10 23:33:59;;;;;;;7.70;3.73;;;;;;;10.71;67.38;96911.13;5866851;24;20187;-89
2024/04/10 23:41:22;;;;;;;;;;;;;;;;;;;;;
